Forbes Field
KFOE : now visible

Airfield :











YOU CAN JOIN US ON...

 
LOGIN :

Register | Disclaimer

   EN    FR    IT 

 









Legend :    VFR   Marginal VFR   IFR   Intensive IFR   Very Intensive IFR
Visi :
Ceiling :
>= 8 km
>= 3000ft
5 to 8 km
1000 to 3000 ft
1500m to 5 km
500 to 1000 ft
800 to 1500m
200 to 500 ft
< 800m
< 200 ft
Symbols :   Thunderstorms  Fog  Heavy snow  Heavy precipitations  Wind > 20 kt







- Airport Elevation : 1078 ft
- IATA code : FOE


KFOE - Forbes Field

CURRENT METAR :
  • 212053Z 17011G21KT 10SM SCT015 24/21 A2991 RMK AO2 PK WND 17031/2002 SLP116 60008 T02440206 58005

EXPIRED METARs :
  • 211953Z AUTO 18017G28KT 10SM CLR 24/21 A2991 RMK AO2 PK WND 18030/1856 RAE27 SLP121 P0007 T02390206
  • 211907Z 18019G29KT 6SM -RA BR FEW023 SCT075 BKN110 23/21 A2992 RMK AO2 PK WND 18030/1856 LTG DSNT S P0003 T02280206
  • 211853Z 18021G35KT 7SM VCTS RA SCT019 SCT044 BKN070 23/21 A2992 RMK AO2 PK WND 17035/1851 LTG DSNT S RAB26 SLP122 P0001 T02330206
  • 211828Z 19016G29KT 10SM -RA SCT017 OVC043 24/21 A2994 RMK AO2 PK WND 21032/1816 LTG DSNT S AND SW RAB26 P0000 T02440206

TAF KFOE
Valid from the 21 at 20:00 until the 22 at 18:00 UTC


212022Z 2120/2218 18014G25KT P6SM SCT023 BKN100
FM220100 17012KT P6SM SCT035
FM220500 18012KT P6SM VCTS BKN035CB
FM221200 20013KT 6SM TSRA BR BKN012 OVC030CB
No reported NOTAMs for that airfield.



MET'MAP, your aeronautical weather chart ! - Copyright ORBIFLY December 2007 - Disclaimer

ORBIFLY MET'MAP TEAM :

Programming & Development : Alexandra Zaïnal
Concept & Development : Baudouin d'Aumeries
Co-Development & Prog : Marc-Olivier Méhu
Technical & hardware support : Manuel Goepfert

Contact : metmap@orbifly.com




SOURCES & CREDITS :

   NOAA       Earth
Advisory